sensor_id;sensor_type;location;lat;lon;timestamp;P1;durP1;ratioP1;P2;durP2;ratioP2
28988;SDS011;16089;59.952;10.818;2023-03-01T00:01:22;0.75;;;0.20;;
28988;SDS011;16089;59.952;10.818;2023-03-01T00:03:49;8.88;;;3.78;;
28988;SDS011;16089;59.952;10.818;2023-03-01T00:06:16;8.88;;;3.53;;
28988;SDS011;16089;59.952;10.818;2023-03-01T00:08:42;2.45;;;0.52;;
28988;SDS011;16089;59.952;10.818;2023-03-01T00:11:10;1.23;;;0.28;;
28988;SDS011;16089;59.952;10.818;2023-03-01T00:13:39;0.52;;;0.20;;
28988;SDS011;16089;59.952;10.818;2023-03-01T00:16:07;0.38;;;0.20;;
28988;SDS011;16089;59.952;10.818;2023-03-01T00:18:33;0.35;;;0.10;;
28988;SDS011;16089;59.952;10.818;2023-03-01T00:21:00;0.75;;;0.20;;
28988;SDS011;16089;59.952;10.818;2023-03-01T00:23:26;1.38;;;0.10;;
28988;SDS011;16089;59.952;10.818;2023-03-01T00:25:53;2.05;;;0.30;;
28988;SDS011;16089;59.952;10.818;2023-03-01T00:28:19;0.30;;;0.20;;
28988;SDS011;16089;59.952;10.818;2023-03-01T00:30:47;1.30;;;0.30;;
28988;SDS011;16089;59.952;10.818;2023-03-01T00:33:14;0.45;;;0.30;;
28988;SDS011;16089;59.952;10.818;2023-03-01T00:35:40;0.25;;;0.10;;
28988;SDS011;16089;59.952;10.818;2023-03-01T00:38:06;0.13;;;0.10;;
28988;SDS011;16089;59.952;10.818;2023-03-01T00:40:34;0.68;;;0.13;;
28988;SDS011;16089;59.952;10.818;2023-03-01T00:43:01;0.20;;;0.13;;
28988;SDS011;16089;59.952;10.818;2023-03-01T00:45:27;0.38;;;0.13;;
28988;SDS011;16089;59.952;10.818;2023-03-01T00:47:55;0.40;;;0.10;;
28988;SDS011;16089;59.952;10.818;2023-03-01T00:50:22;0.57;;;0.20;;
28988;SDS011;16089;59.952;10.818;2023-03-01T00:52:51;0.85;;;0.20;;
28988;SDS011;16089;59.952;10.818;2023-03-01T00:55:18;0.50;;;0.20;;
28988;SDS011;16089;59.952;10.818;2023-03-01T00:57:44;0.50;;;0.20;;
28988;SDS011;16089;59.952;10.818;2023-03-01T01:00:11;0.98;;;0.20;;
28988;SDS011;16089;59.952;10.818;2023-03-01T01:02:37;0.63;;;0.20;;
28988;SDS011;16089;59.952;10.818;2023-03-01T01:05:05;1.25;;;0.30;;
28988;SDS011;16089;59.952;10.818;2023-03-01T01:07:32;0.25;;;0.20;;
28988;SDS011;16089;59.952;10.818;2023-03-01T01:09:58;1.58;;;0.20;;
28988;SDS011;16089;59.952;10.818;2023-03-01T01:12:25;0.10;;;0.10;;
28988;SDS011;16089;59.952;10.818;2023-03-01T01:14:51;1.15;;;0.20;;
28988;SDS011;16089;59.952;10.818;2023-03-01T01:17:18;0.68;;;0.20;;
28988;SDS011;16089;59.952;10.818;2023-03-01T01:19:44;0.40;;;0.20;;
28988;SDS011;16089;59.952;10.818;2023-03-01T01:22:12;0.45;;;0.20;;
28988;SDS011;16089;59.952;10.818;2023-03-01T01:24:38;0.57;;;0.28;;
28988;SDS011;16089;59.952;10.818;2023-03-01T01:27:04;0.80;;;0.30;;
28988;SDS011;16089;59.952;10.818;2023-03-01T01:29:32;0.63;;;0.10;;
28988;SDS011;16089;59.952;10.818;2023-03-01T01:31:58;0.30;;;0.10;;
28988;SDS011;16089;59.952;10.818;2023-03-01T01:34:25;0.20;;;0.10;;
28988;SDS011;16089;59.952;10.818;2023-03-01T01:36:51;0.10;;;0.10;;
28988;SDS011;16089;59.952;10.818;2023-03-01T01:39:20;0.52;;;0.17;;
28988;SDS011;16089;59.952;10.818;2023-03-01T01:41:47;0.47;;;0.10;;
28988;SDS011;16089;59.952;10.818;2023-03-01T01:44:14;0.10;;;0.10;;
28988;SDS011;16089;59.952;10.818;2023-03-01T01:46:41;0.20;;;0.10;;
28988;SDS011;16089;59.952;10.818;2023-03-01T01:49:11;0.57;;;0.20;;
28988;SDS011;16089;59.952;10.818;2023-03-01T01:51:43;0.52;;;0.20;;
28988;SDS011;16089;59.952;10.818;2023-03-01T01:54:11;1.45;;;0.20;;
28988;SDS011;16089;59.952;10.818;2023-03-01T01:56:40;0.32;;;0.10;;
28988;SDS011;16089;59.952;10.818;2023-03-01T01:59:07;0.75;;;0.20;;
28988;SDS011;16089;59.952;10.818;2023-03-01T02:01:33;0.20;;;0.10;;
28988;SDS011;16089;59.952;10.818;2023-03-01T02:03:59;1.00;;;0.47;;
28988;SDS011;16089;59.952;10.818;2023-03-01T02:06:27;0.45;;;0.10;;
28988;SDS011;16089;59.952;10.818;2023-03-01T02:08:54;0.45;;;0.17;;
28988;SDS011;16089;59.952;10.818;2023-03-01T02:11:21;1.02;;;0.20;;
28988;SDS011;16089;59.952;10.818;2023-03-01T02:13:49;0.20;;;0.10;;
28988;SDS011;16089;59.952;10.818;2023-03-01T02:16:16;0.38;;;0.17;;
28988;SDS011;16089;59.952;10.818;2023-03-01T02:18:42;0.50;;;0.20;;
28988;SDS011;16089;59.952;10.818;2023-03-01T02:21:12;1.15;;;0.20;;
28988;SDS011;16089;59.952;10.818;2023-03-01T02:23:41;0.10;;;0.10;;
28988;SDS011;16089;59.952;10.818;2023-03-01T02:26:11;1.67;;;0.30;;
28988;SDS011;16089;59.952;10.818;2023-03-01T02:28:43;0.20;;;0.20;;
28988;SDS011;16089;59.952;10.818;2023-03-01T02:31:10;0.10;;;0.10;;
28988;SDS011;16089;59.952;10.818;2023-03-01T02:33:57;0.82;;;0.20;;
28988;SDS011;16089;59.952;10.818;2023-03-01T02:36:25;1.45;;;0.10;;
28988;SDS011;16089;59.952;10.818;2023-03-01T02:38:54;0.20;;;0.10;;
28988;SDS011;16089;59.952;10.818;2023-03-01T02:41:22;0.40;;;0.10;;
28988;SDS011;16089;59.952;10.818;2023-03-01T02:43:51;0.57;;;0.20;;
28988;SDS011;16089;59.952;10.818;2023-03-01T02:46:18;0.30;;;0.20;;
28988;SDS011;16089;59.952;10.818;2023-03-01T02:48:46;0.45;;;0.20;;
28988;SDS011;16089;59.952;10.818;2023-03-01T02:51:17;0.20;;;0.10;;
28988;SDS011;16089;59.952;10.818;2023-03-01T02:53:48;0.38;;;0.20;;
28988;SDS011;16089;59.952;10.818;2023-03-01T02:56:19;0.55;;;0.20;;
28988;SDS011;16089;59.952;10.818;2023-03-01T02:58:46;0.20;;;0.20;;
28988;SDS011;16089;59.952;10.818;2023-03-01T03:01:18;0.20;;;0.10;;
28988;SDS011;16089;59.952;10.818;2023-03-01T03:03:45;0.38;;;0.10;;
28988;SDS011;16089;59.952;10.818;2023-03-01T03:06:12;0.15;;;0.10;;
28988;SDS011;16089;59.952;10.818;2023-03-01T03:08:38;0.30;;;0.10;;
28988;SDS011;16089;59.952;10.818;2023-03-01T03:11:04;0.10;;;0.10;;
28988;SDS011;16089;59.952;10.818;2023-03-01T03:13:31;0.70;;;0.20;;
28988;SDS011;16089;59.952;10.818;2023-03-01T03:15:57;0.28;;;0.13;;
28988;SDS011;16089;59.952;10.818;2023-03-01T03:18:25;0.10;;;0.10;;
28988;SDS011;16089;59.952;10.818;2023-03-01T03:20:52;1.60;;;0.30;;
28988;SDS011;16089;59.952;10.818;2023-03-01T03:23:19;0.20;;;0.10;;
28988;SDS011;16089;59.952;10.818;2023-03-01T03:25:47;0.65;;;0.20;;
28988;SDS011;16089;59.952;10.818;2023-03-01T03:28:13;0.52;;;0.28;;
28988;SDS011;16089;59.952;10.818;2023-03-01T03:30:41;0.20;;;0.10;;
28988;SDS011;16089;59.952;10.818;2023-03-01T03:33:08;0.30;;;0.10;;
28988;SDS011;16089;59.952;10.818;2023-03-01T03:35:38;0.77;;;0.20;;
28988;SDS011;16089;59.952;10.818;2023-03-01T03:38:05;1.88;;;0.20;;
28988;SDS011;16089;59.952;10.818;2023-03-01T03:40:35;0.60;;;0.20;;
28988;SDS011;16089;59.952;10.818;2023-03-01T03:43:02;1.08;;;0.13;;
28988;SDS011;16089;59.952;10.818;2023-03-01T03:45:28;0.25;;;0.20;;
28988;SDS011;16089;59.952;10.818;2023-03-01T03:47:55;0.95;;;0.20;;
28988;SDS011;16089;59.952;10.818;2023-03-01T03:50:21;0.90;;;0.20;;
28988;SDS011;16089;59.952;10.818;2023-03-01T03:52:49;0.13;;;0.10;;
28988;SDS011;16089;59.952;10.818;2023-03-01T03:55:15;0.43;;;0.20;;
28988;SDS011;16089;59.952;10.818;2023-03-01T03:57:44;0.70;;;0.20;;
28988;SDS011;16089;59.952;10.818;2023-03-01T04:00:16;1.05;;;0.20;;
28988;SDS011;16089;59.952;10.818;2023-03-01T04:02:43;0.32;;;0.10;;
28988;SDS011;16089;59.952;10.818;2023-03-01T04:05:11;0.63;;;0.22;;
28988;SDS011;16089;59.952;10.818;2023-03-01T04:07:37;1.02;;;0.20;;
28988;SDS011;16089;59.952;10.818;2023-03-01T04:10:06;0.65;;;0.20;;
28988;SDS011;16089;59.952;10.818;2023-03-01T04:12:33;1.55;;;0.10;;
28988;SDS011;16089;59.952;10.818;2023-03-01T04:14:59;1.05;;;0.20;;
28988;SDS011;16089;59.952;10.818;2023-03-01T04:17:26;0.45;;;0.20;;
28988;SDS011;16089;59.952;10.818;2023-03-01T04:19:52;1.85;;;0.20;;
28988;SDS011;16089;59.952;10.818;2023-03-01T04:22:19;0.65;;;0.28;;
28988;SDS011;16089;59.952;10.818;2023-03-01T04:24:45;0.32;;;0.20;;
28988;SDS011;16089;59.952;10.818;2023-03-01T04:27:13;0.70;;;0.20;;
28988;SDS011;16089;59.952;10.818;2023-03-01T04:29:39;0.35;;;0.20;;
28988;SDS011;16089;59.952;10.818;2023-03-01T04:32:05;0.50;;;0.22;;
28988;SDS011;16089;59.952;10.818;2023-03-01T04:34:33;0.85;;;0.20;;
28988;SDS011;16089;59.952;10.818;2023-03-01T04:36:59;1.15;;;0.30;;
28988;SDS011;16089;59.952;10.818;2023-03-01T04:39:25;0.75;;;0.20;;
28988;SDS011;16089;59.952;10.818;2023-03-01T04:41:52;0.30;;;0.17;;
28988;SDS011;16089;59.952;10.818;2023-03-01T04:44:19;0.38;;;0.20;;
28988;SDS011;16089;59.952;10.818;2023-03-01T04:46:48;0.30;;;0.20;;
28988;SDS011;16089;59.952;10.818;2023-03-01T04:49:14;0.20;;;0.20;;
28988;SDS011;16089;59.952;10.818;2023-03-01T04:51:41;0.75;;;0.20;;
28988;SDS011;16089;59.952;10.818;2023-03-01T04:54:08;0.50;;;0.20;;
28988;SDS011;16089;59.952;10.818;2023-03-01T04:56:35;4.32;;;1.33;;
28988;SDS011;16089;59.952;10.818;2023-03-01T04:59:01;5.70;;;2.55;;
28988;SDS011;16089;59.952;10.818;2023-03-01T05:01:32;4.22;;;1.33;;
28988;SDS011;16089;59.952;10.818;2023-03-01T05:03:58;1.02;;;0.30;;
28988;SDS011;16089;59.952;10.818;2023-03-01T05:06:28;0.43;;;0.20;;
28988;SDS011;16089;59.952;10.818;2023-03-01T05:08:54;0.60;;;0.20;;
28988;SDS011;16089;59.952;10.818;2023-03-01T05:11:20;0.52;;;0.20;;
28988;SDS011;16089;59.952;10.818;2023-03-01T05:13:47;0.47;;;0.20;;
28988;SDS011;16089;59.952;10.818;2023-03-01T05:16:15;0.47;;;0.20;;
28988;SDS011;16089;59.952;10.818;2023-03-01T05:18:43;0.82;;;0.20;;
28988;SDS011;16089;59.952;10.818;2023-03-01T05:21:12;1.73;;;0.20;;
28988;SDS011;16089;59.952;10.818;2023-03-01T05:23:41;0.43;;;0.20;;
28988;SDS011;16089;59.952;10.818;2023-03-01T05:26:07;0.80;;;0.20;;
28988;SDS011;16089;59.952;10.818;2023-03-01T05:28:34;1.25;;;0.30;;
28988;SDS011;16089;59.952;10.818;2023-03-01T05:31:00;0.57;;;0.30;;
28988;SDS011;16089;59.952;10.818;2023-03-01T05:33:27;0.30;;;0.20;;
28988;SDS011;16089;59.952;10.818;2023-03-01T05:35:59;2.38;;;0.25;;
28988;SDS011;16089;59.952;10.818;2023-03-01T05:38:25;1.45;;;0.20;;
28988;SDS011;16089;59.952;10.818;2023-03-01T05:40:51;2.03;;;0.20;;
28988;SDS011;16089;59.952;10.818;2023-03-01T05:43:18;0.22;;;0.20;;
28988;SDS011;16089;59.952;10.818;2023-03-01T05:45:45;0.32;;;0.10;;
28988;SDS011;16089;59.952;10.818;2023-03-01T05:48:11;0.40;;;0.20;;
28988;SDS011;16089;59.952;10.818;2023-03-01T05:50:39;1.52;;;0.28;;
28988;SDS011;16089;59.952;10.818;2023-03-01T05:53:07;0.47;;;0.20;;
28988;SDS011;16089;59.952;10.818;2023-03-01T05:55:35;0.40;;;0.20;;
28988;SDS011;16089;59.952;10.818;2023-03-01T05:58:03;0.90;;;0.20;;
28988;SDS011;16089;59.952;10.818;2023-03-01T06:00:30;0.30;;;0.20;;
28988;SDS011;16089;59.952;10.818;2023-03-01T06:02:57;1.15;;;0.17;;
28988;SDS011;16089;59.952;10.818;2023-03-01T06:05:24;0.63;;;0.20;;
28988;SDS011;16089;59.952;10.818;2023-03-01T06:07:51;0.55;;;0.20;;
28988;SDS011;16089;59.952;10.818;2023-03-01T06:10:19;0.68;;;0.20;;
28988;SDS011;16089;59.952;10.818;2023-03-01T06:12:46;0.65;;;0.20;;
28988;SDS011;16089;59.952;10.818;2023-03-01T06:15:13;1.55;;;0.30;;
28988;SDS011;16089;59.952;10.818;2023-03-01T06:17:40;0.60;;;0.30;;
28988;SDS011;16089;59.952;10.818;2023-03-01T06:20:07;1.38;;;0.20;;
28988;SDS011;16089;59.952;10.818;2023-03-01T06:22:34;0.77;;;0.30;;
28988;SDS011;16089;59.952;10.818;2023-03-01T06:25:01;1.73;;;0.20;;
28988;SDS011;16089;59.952;10.818;2023-03-01T06:27:29;3.78;;;0.30;;
28988;SDS011;16089;59.952;10.818;2023-03-01T06:29:55;0.55;;;0.13;;
28988;SDS011;16089;59.952;10.818;2023-03-01T06:32:21;0.45;;;0.20;;
28988;SDS011;16089;59.952;10.818;2023-03-01T06:34:48;0.65;;;0.30;;
28988;SDS011;16089;59.952;10.818;2023-03-01T06:37:15;0.80;;;0.20;;
28988;SDS011;16089;59.952;10.818;2023-03-01T06:39:41;1.65;;;0.50;;
28988;SDS011;16089;59.952;10.818;2023-03-01T06:42:08;2.47;;;0.30;;
28988;SDS011;16089;59.952;10.818;2023-03-01T06:44:36;6.30;;;0.30;;
28988;SDS011;16089;59.952;10.818;2023-03-01T06:47:03;1.15;;;0.13;;
28988;SDS011;16089;59.952;10.818;2023-03-01T06:49:29;0.68;;;0.28;;
28988;SDS011;16089;59.952;10.818;2023-03-01T06:51:56;0.10;;;0.10;;
28988;SDS011;16089;59.952;10.818;2023-03-01T06:54:22;1.15;;;0.20;;
28988;SDS011;16089;59.952;10.818;2023-03-01T06:56:49;3.70;;;0.45;;
28988;SDS011;16089;59.952;10.818;2023-03-01T06:59:16;1.60;;;0.55;;
28988;SDS011;16089;59.952;10.818;2023-03-01T07:01:44;0.10;;;0.10;;
28988;SDS011;16089;59.952;10.818;2023-03-01T07:04:10;0.32;;;0.20;;
28988;SDS011;16089;59.952;10.818;2023-03-01T07:06:37;0.93;;;0.20;;
28988;SDS011;16089;59.952;10.818;2023-03-01T07:09:03;0.25;;;0.10;;
28988;SDS011;16089;59.952;10.818;2023-03-01T07:11:29;0.28;;;0.20;;
28988;SDS011;16089;59.952;10.818;2023-03-01T07:13:56;0.13;;;0.10;;
28988;SDS011;16089;59.952;10.818;2023-03-01T07:16:23;0.22;;;0.10;;
28988;SDS011;16089;59.952;10.818;2023-03-01T07:18:51;2.45;;;0.30;;
28988;SDS011;16089;59.952;10.818;2023-03-01T07:21:17;4.22;;;0.30;;
28988;SDS011;16089;59.952;10.818;2023-03-01T07:23:43;0.60;;;0.22;;
28988;SDS011;16089;59.952;10.818;2023-03-01T07:26:13;0.15;;;0.10;;
28988;SDS011;16089;59.952;10.818;2023-03-01T07:28:39;0.90;;;0.20;;
28988;SDS011;16089;59.952;10.818;2023-03-01T07:31:06;3.22;;;0.77;;
28988;SDS011;16089;59.952;10.818;2023-03-01T07:33:32;2.50;;;0.50;;
28988;SDS011;16089;59.952;10.818;2023-03-01T07:36:00;1.17;;;0.40;;
28988;SDS011;16089;59.952;10.818;2023-03-01T07:38:27;0.82;;;0.20;;
28988;SDS011;16089;59.952;10.818;2023-03-01T07:40:56;2.10;;;0.25;;
28988;SDS011;16089;59.952;10.818;2023-03-01T07:43:23;1.20;;;0.30;;
28988;SDS011;16089;59.952;10.818;2023-03-01T07:45:50;4.53;;;1.15;;
28988;SDS011;16089;59.952;10.818;2023-03-01T07:48:16;2.80;;;0.50;;
28988;SDS011;16089;59.952;10.818;2023-03-01T07:50:43;2.78;;;0.63;;
28988;SDS011;16089;59.952;10.818;2023-03-01T07:53:10;2.42;;;0.90;;
28988;SDS011;16089;59.952;10.818;2023-03-01T07:55:37;2.17;;;0.60;;
28988;SDS011;16089;59.952;10.818;2023-03-01T07:58:03;4.95;;;0.40;;
28988;SDS011;16089;59.952;10.818;2023-03-01T08:00:30;2.50;;;0.50;;
28988;SDS011;16089;59.952;10.818;2023-03-01T08:02:58;3.45;;;0.40;;
28988;SDS011;16089;59.952;10.818;2023-03-01T08:05:24;7.18;;;0.80;;
28988;SDS011;16089;59.952;10.818;2023-03-01T08:07:51;5.63;;;0.90;;
28988;SDS011;16089;59.952;10.818;2023-03-01T08:10:19;3.03;;;0.75;;
28988;SDS011;16089;59.952;10.818;2023-03-01T08:12:45;6.88;;;0.80;;
28988;SDS011;16089;59.952;10.818;2023-03-01T08:15:12;3.20;;;0.60;;
28988;SDS011;16089;59.952;10.818;2023-03-01T08:17:38;3.40;;;0.95;;
28988;SDS011;16089;59.952;10.818;2023-03-01T08:20:05;2.40;;;0.98;;
28988;SDS011;16089;59.952;10.818;2023-03-01T08:22:32;5.72;;;1.20;;
28988;SDS011;16089;59.952;10.818;2023-03-01T08:24:59;7.00;;;1.63;;
28988;SDS011;16089;59.952;10.818;2023-03-01T08:27:36;6.88;;;1.30;;
28988;SDS011;16089;59.952;10.818;2023-03-01T08:30:02;5.25;;;1.48;;
28988;SDS011;16089;59.952;10.818;2023-03-01T08:32:29;5.22;;;1.50;;
28988;SDS011;16089;59.952;10.818;2023-03-01T08:34:55;7.43;;;2.20;;
28988;SDS011;16089;59.952;10.818;2023-03-01T08:37:22;11.13;;;3.05;;
28988;SDS011;16089;59.952;10.818;2023-03-01T08:39:48;13.55;;;2.90;;
28988;SDS011;16089;59.952;10.818;2023-03-01T08:42:14;10.90;;;2.88;;
28988;SDS011;16089;59.952;10.818;2023-03-01T08:44:42;8.82;;;2.65;;
28988;SDS011;16089;59.952;10.818;2023-03-01T08:47:08;12.18;;;3.30;;
28988;SDS011;16089;59.952;10.818;2023-03-01T08:49:35;9.60;;;3.17;;
28988;SDS011;16089;59.952;10.818;2023-03-01T08:52:01;9.85;;;2.80;;
28988;SDS011;16089;59.952;10.818;2023-03-01T08:54:27;10.85;;;2.85;;
28988;SDS011;16089;59.952;10.818;2023-03-01T08:56:54;12.98;;;3.13;;
28988;SDS011;16089;59.952;10.818;2023-03-01T08:59:24;9.93;;;3.05;;
28988;SDS011;16089;59.952;10.818;2023-03-01T09:01:52;14.80;;;3.15;;
28988;SDS011;16089;59.952;10.818;2023-03-01T09:04:19;16.58;;;3.08;;
28988;SDS011;16089;59.952;10.818;2023-03-01T09:06:45;10.65;;;3.00;;
28988;SDS011;16089;59.952;10.818;2023-03-01T09:09:13;11.60;;;3.25;;
28988;SDS011;16089;59.952;10.818;2023-03-01T09:11:41;13.77;;;3.20;;
28988;SDS011;16089;59.952;10.818;2023-03-01T09:14:07;12.27;;;2.65;;
28988;SDS011;16089;59.952;10.818;2023-03-01T09:16:34;17.60;;;3.28;;
28988;SDS011;16089;59.952;10.818;2023-03-01T09:19:02;15.25;;;3.90;;
28988;SDS011;16089;59.952;10.818;2023-03-01T09:21:29;16.92;;;4.15;;
28988;SDS011;16089;59.952;10.818;2023-03-01T09:23:55;12.07;;;4.13;;
28988;SDS011;16089;59.952;10.818;2023-03-01T09:26:23;23.60;;;4.70;;
28988;SDS011;16089;59.952;10.818;2023-03-01T09:28:51;18.92;;;3.88;;
28988;SDS011;16089;59.952;10.818;2023-03-01T09:31:18;18.48;;;4.50;;
28988;SDS011;16089;59.952;10.818;2023-03-01T09:33:46;21.45;;;5.13;;
28988;SDS011;16089;59.952;10.818;2023-03-01T09:36:16;19.80;;;5.13;;
28988;SDS011;16089;59.952;10.818;2023-03-01T09:38:42;14.98;;;5.30;;
28988;SDS011;16089;59.952;10.818;2023-03-01T09:41:09;24.40;;;4.47;;
28988;SDS011;16089;59.952;10.818;2023-03-01T09:43:38;15.13;;;4.63;;
28988;SDS011;16089;59.952;10.818;2023-03-01T09:46:06;19.42;;;5.05;;
28988;SDS011;16089;59.952;10.818;2023-03-01T09:48:37;15.40;;;5.10;;
28988;SDS011;16089;59.952;10.818;2023-03-01T09:51:07;19.10;;;6.25;;
28988;SDS011;16089;59.952;10.818;2023-03-01T09:53:36;21.40;;;7.88;;
28988;SDS011;16089;59.952;10.818;2023-03-01T09:56:04;19.20;;;5.40;;
28988;SDS011;16089;59.952;10.818;2023-03-01T09:58:34;20.70;;;4.90;;
28988;SDS011;16089;59.952;10.818;2023-03-01T10:01:02;24.95;;;5.20;;
28988;SDS011;16089;59.952;10.818;2023-03-01T10:03:32;17.13;;;5.22;;
28988;SDS011;16089;59.952;10.818;2023-03-01T10:06:00;31.88;;;5.32;;
28988;SDS011;16089;59.952;10.818;2023-03-01T10:08:29;28.27;;;5.28;;
28988;SDS011;16089;59.952;10.818;2023-03-01T10:10:59;27.95;;;5.50;;
28988;SDS011;16089;59.952;10.818;2023-03-01T10:13:27;27.15;;;5.15;;
28988;SDS011;16089;59.952;10.818;2023-03-01T10:15:55;28.90;;;4.80;;
28988;SDS011;16089;59.952;10.818;2023-03-01T10:18:23;36.92;;;4.60;;
28988;SDS011;16089;59.952;10.818;2023-03-01T10:20:52;25.95;;;5.18;;
28988;SDS011;16089;59.952;10.818;2023-03-01T10:23:19;28.20;;;4.85;;
28988;SDS011;16089;59.952;10.818;2023-03-01T10:25:48;29.73;;;6.25;;
28988;SDS011;16089;59.952;10.818;2023-03-01T10:28:17;26.23;;;4.25;;
28988;SDS011;16089;59.952;10.818;2023-03-01T10:30:46;22.42;;;5.05;;
28988;SDS011;16089;59.952;10.818;2023-03-01T10:33:15;29.73;;;7.30;;
28988;SDS011;16089;59.952;10.818;2023-03-01T10:35:43;14.75;;;3.72;;
28988;SDS011;16089;59.952;10.818;2023-03-01T10:38:10;12.68;;;4.45;;
28988;SDS011;16089;59.952;10.818;2023-03-01T10:40:51;11.65;;;4.82;;
28988;SDS011;16089;59.952;10.818;2023-03-01T10:43:19;13.20;;;2.85;;
28988;SDS011;16089;59.952;10.818;2023-03-01T10:45:48;10.05;;;3.00;;
28988;SDS011;16089;59.952;10.818;2023-03-01T10:48:15;13.93;;;2.63;;
28988;SDS011;16089;59.952;10.818;2023-03-01T10:50:42;10.60;;;2.70;;
28988;SDS011;16089;59.952;10.818;2023-03-01T10:53:20;4.68;;;2.08;;
28988;SDS011;16089;59.952;10.818;2023-03-01T10:55:58;6.38;;;2.00;;
28988;SDS011;16089;59.952;10.818;2023-03-01T10:58:27;7.72;;;3.10;;
28988;SDS011;16089;59.952;10.818;2023-03-01T11:00:54;8.10;;;2.65;;
28988;SDS011;16089;59.952;10.818;2023-03-01T11:03:21;6.88;;;2.30;;
28988;SDS011;16089;59.952;10.818;2023-03-01T11:05:56;5.25;;;2.00;;
28988;SDS011;16089;59.952;10.818;2023-03-01T11:08:34;13.52;;;2.20;;
28988;SDS011;16089;59.952;10.818;2023-03-01T11:11:03;6.50;;;2.00;;
28988;SDS011;16089;59.952;10.818;2023-03-01T11:13:31;8.60;;;2.10;;
28988;SDS011;16089;59.952;10.818;2023-03-01T11:15:58;11.05;;;2.30;;
28988;SDS011;16089;59.952;10.818;2023-03-01T11:18:25;9.10;;;2.10;;
28988;SDS011;16089;59.952;10.818;2023-03-01T11:20:53;9.73;;;3.00;;
28988;SDS011;16089;59.952;10.818;2023-03-01T11:23:21;10.07;;;3.00;;
28988;SDS011;16089;59.952;10.818;2023-03-01T11:25:49;10.70;;;2.95;;
28988;SDS011;16089;59.952;10.818;2023-03-01T11:28:17;10.68;;;2.67;;
28988;SDS011;16089;59.952;10.818;2023-03-01T11:30:49;9.63;;;2.38;;
28988;SDS011;16089;59.952;10.818;2023-03-01T11:33:19;9.48;;;1.70;;
28988;SDS011;16089;59.952;10.818;2023-03-01T11:35:49;8.55;;;2.00;;
28988;SDS011;16089;59.952;10.818;2023-03-01T11:38:21;6.15;;;1.60;;
28988;SDS011;16089;59.952;10.818;2023-03-01T11:40:49;5.45;;;1.20;;
28988;SDS011;16089;59.952;10.818;2023-03-01T11:43:19;9.05;;;1.30;;
28988;SDS011;16089;59.952;10.818;2023-03-01T11:45:50;7.43;;;1.00;;
28988;SDS011;16089;59.952;10.818;2023-03-01T11:48:24;5.68;;;0.90;;
28988;SDS011;16089;59.952;10.818;2023-03-01T11:50:54;2.75;;;0.70;;
28988;SDS011;16089;59.952;10.818;2023-03-01T11:53:27;2.47;;;0.65;;
28988;SDS011;16089;59.952;10.818;2023-03-01T11:56:03;3.10;;;0.60;;
28988;SDS011;16089;59.952;10.818;2023-03-01T11:58:38;2.38;;;0.52;;
28988;SDS011;16089;59.952;10.818;2023-03-01T12:01:14;2.60;;;0.40;;
28988;SDS011;16089;59.952;10.818;2023-03-01T12:03:59;1.70;;;0.50;;
28988;SDS011;16089;59.952;10.818;2023-03-01T12:06:36;3.35;;;0.60;;
28988;SDS011;16089;59.952;10.818;2023-03-01T12:09:17;1.65;;;0.43;;
28988;SDS011;16089;59.952;10.818;2023-03-01T12:11:54;2.55;;;0.60;;
28988;SDS011;16089;59.952;10.818;2023-03-01T12:14:34;3.75;;;0.50;;
28988;SDS011;16089;59.952;10.818;2023-03-01T12:17:28;7.75;;;0.80;;
28988;SDS011;16089;59.952;10.818;2023-03-01T12:20:05;4.18;;;0.80;;
28988;SDS011;16089;59.952;10.818;2023-03-01T12:22:35;2.45;;;0.80;;
28988;SDS011;16089;59.952;10.818;2023-03-01T12:25:11;7.22;;;1.20;;
28988;SDS011;16089;59.952;10.818;2023-03-01T12:27:53;5.55;;;1.10;;
28988;SDS011;16089;59.952;10.818;2023-03-01T12:30:25;2.30;;;0.85;;
28988;SDS011;16089;59.952;10.818;2023-03-01T12:32:57;5.30;;;0.90;;
28988;SDS011;16089;59.952;10.818;2023-03-01T12:35:30;2.92;;;0.60;;
28988;SDS011;16089;59.952;10.818;2023-03-01T12:38:06;4.13;;;0.60;;
28988;SDS011;16089;59.952;10.818;2023-03-01T12:40:53;5.72;;;1.25;;
28988;SDS011;16089;59.952;10.818;2023-03-01T12:43:31;10.45;;;1.77;;
28988;SDS011;16089;59.952;10.818;2023-03-01T12:46:10;5.95;;;1.35;;
28988;SDS011;16089;59.952;10.818;2023-03-01T12:48:43;9.52;;;1.42;;
28988;SDS011;16089;59.952;10.818;2023-03-01T12:51:13;6.13;;;1.05;;
28988;SDS011;16089;59.952;10.818;2023-03-01T12:53:40;5.47;;;1.48;;
28988;SDS011;16089;59.952;10.818;2023-03-01T12:56:08;4.78;;;1.20;;
28988;SDS011;16089;59.952;10.818;2023-03-01T12:58:40;9.88;;;1.38;;
28988;SDS011;16089;59.952;10.818;2023-03-01T13:01:14;10.02;;;1.83;;
28988;SDS011;16089;59.952;10.818;2023-03-01T13:06:42;8.20;;;1.70;;
28988;SDS011;16089;59.952;10.818;2023-03-01T13:09:13;5.65;;;1.38;;
28988;SDS011;16089;59.952;10.818;2023-03-01T13:11:41;7.65;;;1.40;;
28988;SDS011;16089;59.952;10.818;2023-03-01T13:16:52;4.25;;;1.15;;
28988;SDS011;16089;59.952;10.818;2023-03-01T13:19:19;3.97;;;0.80;;
28988;SDS011;16089;59.952;10.818;2023-03-01T13:21:48;5.63;;;1.00;;
28988;SDS011;16089;59.952;10.818;2023-03-01T13:24:24;4.35;;;0.85;;
28988;SDS011;16089;59.952;10.818;2023-03-01T13:27:11;3.97;;;1.17;;
28988;SDS011;16089;59.952;10.818;2023-03-01T13:29:43;4.82;;;0.95;;
28988;SDS011;16089;59.952;10.818;2023-03-01T13:32:18;8.23;;;1.30;;
28988;SDS011;16089;59.952;10.818;2023-03-01T13:34:48;4.85;;;0.80;;
28988;SDS011;16089;59.952;10.818;2023-03-01T13:37:27;0.43;;;0.17;;
28988;SDS011;16089;59.952;10.818;2023-03-01T13:39:55;0.30;;;0.10;;
28988;SDS011;16089;59.952;10.818;2023-03-01T13:47:50;1.20;;;0.30;;
28988;SDS011;16089;59.952;10.818;2023-03-01T13:50:23;3.28;;;0.60;;
28988;SDS011;16089;59.952;10.818;2023-03-01T13:52:53;4.15;;;0.47;;
28988;SDS011;16089;59.952;10.818;2023-03-01T13:55:23;1.10;;;0.20;;
28988;SDS011;16089;59.952;10.818;2023-03-01T13:57:51;0.55;;;0.20;;
28988;SDS011;16089;59.952;10.818;2023-03-01T14:00:29;2.00;;;0.20;;
28988;SDS011;16089;59.952;10.818;2023-03-01T14:02:59;0.68;;;0.10;;
28988;SDS011;16089;59.952;10.818;2023-03-01T14:05:26;1.30;;;0.20;;
28988;SDS011;16089;59.952;10.818;2023-03-01T14:07:54;5.50;;;0.43;;
28988;SDS011;16089;59.952;10.818;2023-03-01T14:10:20;0.25;;;0.10;;
28988;SDS011;16089;59.952;10.818;2023-03-01T14:12:48;0.32;;;0.10;;
28988;SDS011;16089;59.952;10.818;2023-03-01T14:15:18;0.30;;;0.10;;
28988;SDS011;16089;59.952;10.818;2023-03-01T14:17:50;0.10;;;0.10;;
28988;SDS011;16089;59.952;10.818;2023-03-01T14:20:19;0.25;;;0.10;;
28988;SDS011;16089;59.952;10.818;2023-03-01T14:22:46;1.02;;;0.20;;
28988;SDS011;16089;59.952;10.818;2023-03-01T14:25:19;0.68;;;0.10;;
28988;SDS011;16089;59.952;10.818;2023-03-01T14:27:46;0.30;;;0.20;;
28988;SDS011;16089;59.952;10.818;2023-03-01T14:30:19;0.10;;;0.10;;
28988;SDS011;16089;59.952;10.818;2023-03-01T14:32:51;1.30;;;0.20;;
28988;SDS011;16089;59.952;10.818;2023-03-01T14:35:19;0.65;;;0.20;;
28988;SDS011;16089;59.952;10.818;2023-03-01T14:37:46;0.82;;;0.30;;
28988;SDS011;16089;59.952;10.818;2023-03-01T14:42:48;0.20;;;0.10;;
28988;SDS011;16089;59.952;10.818;2023-03-01T14:45:14;0.40;;;0.20;;
28988;SDS011;16089;59.952;10.818;2023-03-01T14:47:41;0.47;;;0.10;;
28988;SDS011;16089;59.952;10.818;2023-03-01T14:50:08;1.13;;;0.20;;
28988;SDS011;16089;59.952;10.818;2023-03-01T14:52:35;1.73;;;0.38;;
28988;SDS011;16089;59.952;10.818;2023-03-01T14:55:04;6.82;;;2.88;;